sensor_id;sensor_type;location;lat;lon;timestamp;pressure;altitude;pressure_sealevel;temperature;humidity
73024;BME280;72676;47.526;8.538;2024-01-07T00:00:23;95698.53;;;7.17;75.66
73024;BME280;72676;47.526;8.538;2024-01-07T00:02:50;95696.56;;;7.10;75.79
73024;BME280;72676;47.526;8.538;2024-01-07T00:05:17;95702.88;;;7.07;75.78
73024;BME280;72676;47.526;8.538;2024-01-07T00:07:43;95698.06;;;7.03;76.13
73024;BME280;72676;47.526;8.538;2024-01-07T00:10:10;95694.59;;;6.93;76.49
73024;BME280;72676;47.526;8.538;2024-01-07T00:12:36;95699.28;;;6.99;76.21
73024;BME280;72676;47.526;8.538;2024-01-07T00:15:03;95701.19;;;6.97;75.80
73024;BME280;72676;47.526;8.538;2024-01-07T00:17:30;95700.53;;;6.74;75.89
73024;BME280;72676;47.526;8.538;2024-01-07T00:19:56;95699.16;;;6.50;76.61
73024;BME280;72676;47.526;8.538;2024-01-07T00:22:23;95700.81;;;6.71;75.78
73024;BME280;72676;47.526;8.538;2024-01-07T00:24:49;95692.81;;;6.63;76.28
73024;BME280;72676;47.526;8.538;2024-01-07T00:27:16;95696.38;;;6.62;75.72
73024;BME280;72676;47.526;8.538;2024-01-07T00:29:42;95701.81;;;6.59;75.72
73024;BME280;72676;47.526;8.538;2024-01-07T00:32:09;95698.75;;;6.75;75.68
73024;BME280;72676;47.526;8.538;2024-01-07T00:34:35;95700.81;;;6.71;75.34
73024;BME280;72676;47.526;8.538;2024-01-07T00:37:02;95699.50;;;6.66;75.78
73024;BME280;72676;47.526;8.538;2024-01-07T00:39:28;95703.34;;;6.62;75.60
73024;BME280;72676;47.526;8.538;2024-01-07T00:41:55;95705.69;;;6.65;75.33
73024;BME280;72676;47.526;8.538;2024-01-07T00:44:21;95703.59;;;6.59;75.69
73024;BME280;72676;47.526;8.538;2024-01-07T00:46:48;95707.03;;;6.39;76.37
73024;BME280;72676;47.526;8.538;2024-01-07T00:49:15;95705.63;;;6.55;75.84
73024;BME280;72676;47.526;8.538;2024-01-07T00:51:41;95699.34;;;6.58;75.19
73024;BME280;72676;47.526;8.538;2024-01-07T00:54:08;95704.38;;;6.50;75.25
73024;BME280;72676;47.526;8.538;2024-01-07T00:56:34;95697.63;;;6.47;75.59
73024;BME280;72676;47.526;8.538;2024-01-07T00:59:01;95701.31;;;6.45;75.39
73024;BME280;72676;47.526;8.538;2024-01-07T01:01:27;95704.03;;;6.64;75.22
73024;BME280;72676;47.526;8.538;2024-01-07T01:03:54;95696.59;;;6.59;75.64
73024;BME280;72676;47.526;8.538;2024-01-07T01:06:21;95701.25;;;6.56;75.27
73024;BME280;72676;47.526;8.538;2024-01-07T01:08:47;95699.47;;;6.56;75.15
73024;BME280;72676;47.526;8.538;2024-01-07T01:11:14;95708.34;;;6.54;75.85
73024;BME280;72676;47.526;8.538;2024-01-07T01:13:40;95708.63;;;6.51;75.36
73024;BME280;72676;47.526;8.538;2024-01-07T01:16:07;95713.38;;;6.66;74.93
73024;BME280;72676;47.526;8.538;2024-01-07T01:18:33;95715.28;;;6.64;74.88
73024;BME280;72676;47.526;8.538;2024-01-07T01:21:00;95715.78;;;6.58;75.73
73024;BME280;72676;47.526;8.538;2024-01-07T01:23:26;95714.69;;;6.61;75.55
73024;BME280;72676;47.526;8.538;2024-01-07T01:25:52;95719.41;;;6.67;75.35
73024;BME280;72676;47.526;8.538;2024-01-07T01:28:19;95712.28;;;6.69;75.37
73024;BME280;72676;47.526;8.538;2024-01-07T01:30:45;95722.31;;;6.73;75.01
73024;BME280;72676;47.526;8.538;2024-01-07T01:33:12;95718.88;;;6.73;75.28
73024;BME280;72676;47.526;8.538;2024-01-07T01:35:39;95719.13;;;6.70;75.07
73024;BME280;72676;47.526;8.538;2024-01-07T01:38:05;95717.50;;;6.69;75.38
73024;BME280;72676;47.526;8.538;2024-01-07T01:40:31;95721.66;;;6.60;75.42
73024;BME280;72676;47.526;8.538;2024-01-07T01:42:58;95717.41;;;6.59;75.39
73024;BME280;72676;47.526;8.538;2024-01-07T01:45:24;95718.25;;;6.60;75.46
73024;BME280;72676;47.526;8.538;2024-01-07T01:47:51;95720.16;;;6.58;75.13
73024;BME280;72676;47.526;8.538;2024-01-07T01:50:18;95719.59;;;6.54;75.95
73024;BME280;72676;47.526;8.538;2024-01-07T01:52:45;95723.59;;;6.58;75.27
73024;BME280;72676;47.526;8.538;2024-01-07T01:55:12;95720.94;;;6.49;75.75
73024;BME280;72676;47.526;8.538;2024-01-07T01:57:39;95725.09;;;6.61;75.57
73024;BME280;72676;47.526;8.538;2024-01-07T02:00:06;95723.16;;;6.53;75.69
73024;BME280;72676;47.526;8.538;2024-01-07T02:02:33;95717.56;;;6.37;76.50
73024;BME280;72676;47.526;8.538;2024-01-07T02:05:03;95724.41;;;6.38;76.34
73024;BME280;72676;47.526;8.538;2024-01-07T02:07:30;95721.16;;;6.46;75.92
73024;BME280;72676;47.526;8.538;2024-01-07T02:09:57;95719.03;;;6.51;75.48
73024;BME280;72676;47.526;8.538;2024-01-07T02:12:24;95724.59;;;6.26;76.02
73024;BME280;72676;47.526;8.538;2024-01-07T02:14:50;95731.22;;;6.30;76.61
73024;BME280;72676;47.526;8.538;2024-01-07T02:17:18;95727.97;;;6.37;76.06
73024;BME280;72676;47.526;8.538;2024-01-07T02:19:45;95726.13;;;6.28;76.63
73024;BME280;72676;47.526;8.538;2024-01-07T02:22:12;95726.44;;;6.35;75.93
73024;BME280;72676;47.526;8.538;2024-01-07T02:24:38;95729.88;;;6.35;76.09
73024;BME280;72676;47.526;8.538;2024-01-07T02:27:05;95728.28;;;6.44;75.75
73024;BME280;72676;47.526;8.538;2024-01-07T02:29:31;95729.94;;;6.45;75.94
73024;BME280;72676;47.526;8.538;2024-01-07T02:31:57;95733.00;;;6.50;75.51
73024;BME280;72676;47.526;8.538;2024-01-07T02:34:24;95730.25;;;6.51;75.05
73024;BME280;72676;47.526;8.538;2024-01-07T02:36:50;95731.47;;;6.47;75.31
73024;BME280;72676;47.526;8.538;2024-01-07T02:39:17;95731.56;;;6.46;75.36
73024;BME280;72676;47.526;8.538;2024-01-07T02:41:44;95724.34;;;6.29;75.91
73024;BME280;72676;47.526;8.538;2024-01-07T02:44:10;95721.56;;;6.21;76.30
73024;BME280;72676;47.526;8.538;2024-01-07T02:46:38;95721.22;;;6.35;75.81
73024;BME280;72676;47.526;8.538;2024-01-07T02:49:05;95723.78;;;6.25;75.65
73024;BME280;72676;47.526;8.538;2024-01-07T02:51:32;95726.91;;;6.40;75.78
73024;BME280;72676;47.526;8.538;2024-01-07T02:53:58;95733.28;;;6.36;76.09
73024;BME280;72676;47.526;8.538;2024-01-07T02:56:24;95723.41;;;6.30;75.83
73024;BME280;72676;47.526;8.538;2024-01-07T02:58:51;95723.34;;;6.41;75.85
73024;BME280;72676;47.526;8.538;2024-01-07T03:01:17;95725.31;;;6.48;75.85
73024;BME280;72676;47.526;8.538;2024-01-07T03:03:44;95723.53;;;6.49;75.30
73024;BME280;72676;47.526;8.538;2024-01-07T03:06:10;95723.97;;;6.54;74.90
73024;BME280;72676;47.526;8.538;2024-01-07T03:08:37;95735.06;;;6.56;75.00
73024;BME280;72676;47.526;8.538;2024-01-07T03:11:05;95731.00;;;6.42;75.21
73024;BME280;72676;47.526;8.538;2024-01-07T03:13:32;95732.09;;;6.40;75.47
73024;BME280;72676;47.526;8.538;2024-01-07T03:15:59;95733.00;;;6.50;75.92
73024;BME280;72676;47.526;8.538;2024-01-07T03:18:27;95733.47;;;6.44;76.28
73024;BME280;72676;47.526;8.538;2024-01-07T03:20:54;95726.75;;;6.41;75.98
73024;BME280;72676;47.526;8.538;2024-01-07T03:23:20;95729.81;;;6.46;75.35
73024;BME280;72676;47.526;8.538;2024-01-07T03:25:47;95735.66;;;6.39;75.82
73024;BME280;72676;47.526;8.538;2024-01-07T03:28:13;95729.66;;;6.48;75.79
73024;BME280;72676;47.526;8.538;2024-01-07T03:30:40;95727.22;;;6.46;75.92
73024;BME280;72676;47.526;8.538;2024-01-07T03:33:06;95742.88;;;6.56;75.37
73024;BME280;72676;47.526;8.538;2024-01-07T03:35:33;95728.16;;;6.45;75.90
73024;BME280;72676;47.526;8.538;2024-01-07T03:37:59;95732.72;;;6.53;75.40
73024;BME280;72676;47.526;8.538;2024-01-07T03:40:26;95730.13;;;6.53;75.19
73024;BME280;72676;47.526;8.538;2024-01-07T03:42:52;95724.72;;;6.45;75.11
73024;BME280;72676;47.526;8.538;2024-01-07T03:45:19;95733.16;;;6.37;75.99
73024;BME280;72676;47.526;8.538;2024-01-07T03:47:45;95726.53;;;6.44;75.47
73024;BME280;72676;47.526;8.538;2024-01-07T03:50:12;95729.66;;;6.48;75.32
73024;BME280;72676;47.526;8.538;2024-01-07T03:52:38;95732.47;;;6.56;75.02
73024;BME280;72676;47.526;8.538;2024-01-07T03:55:05;95730.50;;;6.48;74.61
73024;BME280;72676;47.526;8.538;2024-01-07T03:57:32;95733.38;;;6.45;74.85
73024;BME280;72676;47.526;8.538;2024-01-07T03:59:59;95733.69;;;6.52;75.03
73024;BME280;72676;47.526;8.538;2024-01-07T04:02:26;95736.72;;;6.57;74.77
73024;BME280;72676;47.526;8.538;2024-01-07T04:04:52;95738.75;;;6.53;74.63
73024;BME280;72676;47.526;8.538;2024-01-07T04:07:18;95737.81;;;6.54;74.27
73024;BME280;72676;47.526;8.538;2024-01-07T04:09:45;95737.66;;;6.56;74.57
73024;BME280;72676;47.526;8.538;2024-01-07T04:12:11;95743.13;;;6.53;74.35
73024;BME280;72676;47.526;8.538;2024-01-07T04:14:38;95734.88;;;6.48;74.63
73024;BME280;72676;47.526;8.538;2024-01-07T04:17:04;95745.78;;;6.42;74.79
73024;BME280;72676;47.526;8.538;2024-01-07T04:19:31;95740.00;;;6.38;74.95
73024;BME280;72676;47.526;8.538;2024-01-07T04:21:58;95740.00;;;6.38;74.97
73024;BME280;72676;47.526;8.538;2024-01-07T04:24:24;95742.25;;;6.43;75.27
73024;BME280;72676;47.526;8.538;2024-01-07T04:26:51;95738.41;;;6.47;75.20
73024;BME280;72676;47.526;8.538;2024-01-07T04:29:17;95742.56;;;6.49;75.14
73024;BME280;72676;47.526;8.538;2024-01-07T04:31:44;95740.78;;;6.50;75.02
73024;BME280;72676;47.526;8.538;2024-01-07T04:34:10;95737.03;;;6.43;74.83
73024;BME280;72676;47.526;8.538;2024-01-07T04:36:37;95740.31;;;6.45;75.48
73024;BME280;72676;47.526;8.538;2024-01-07T04:39:03;95744.34;;;6.49;75.35
73024;BME280;72676;47.526;8.538;2024-01-07T04:41:30;95746.28;;;6.36;75.19
73024;BME280;72676;47.526;8.538;2024-01-07T04:43:56;95749.59;;;6.38;75.36
73024;BME280;72676;47.526;8.538;2024-01-07T04:46:23;95746.47;;;6.44;75.02
73024;BME280;72676;47.526;8.538;2024-01-07T04:48:49;95749.09;;;6.44;74.62
73024;BME280;72676;47.526;8.538;2024-01-07T04:51:15;95746.41;;;6.55;74.49
73024;BME280;72676;47.526;8.538;2024-01-07T04:53:42;95747.38;;;6.54;74.36
73024;BME280;72676;47.526;8.538;2024-01-07T04:56:08;95748.06;;;6.56;74.51
73024;BME280;72676;47.526;8.538;2024-01-07T04:58:35;95757.09;;;6.52;74.75
73024;BME280;72676;47.526;8.538;2024-01-07T05:01:01;95750.09;;;6.52;75.06
73024;BME280;72676;47.526;8.538;2024-01-07T05:03:28;95744.78;;;6.54;74.62
73024;BME280;72676;47.526;8.538;2024-01-07T05:05:54;95759.19;;;6.58;74.10
73024;BME280;72676;47.526;8.538;2024-01-07T05:08:21;95757.59;;;6.46;74.31
73024;BME280;72676;47.526;8.538;2024-01-07T05:10:52;95759.38;;;6.45;74.90
73024;BME280;72676;47.526;8.538;2024-01-07T05:13:18;95761.03;;;6.46;74.49
73024;BME280;72676;47.526;8.538;2024-01-07T05:15:45;95763.94;;;6.53;74.10
73024;BME280;72676;47.526;8.538;2024-01-07T05:18:13;95766.03;;;6.59;73.63
73024;BME280;72676;47.526;8.538;2024-01-07T05:20:42;95770.53;;;6.57;73.50
73024;BME280;72676;47.526;8.538;2024-01-07T05:23:09;95770.78;;;6.54;73.79
73024;BME280;72676;47.526;8.538;2024-01-07T05:25:36;95768.44;;;6.51;74.07
73024;BME280;72676;47.526;8.538;2024-01-07T05:28:02;95765.69;;;6.52;73.47
73024;BME280;72676;47.526;8.538;2024-01-07T05:30:29;95762.56;;;6.49;73.68
73024;BME280;72676;47.526;8.538;2024-01-07T05:32:56;95768.81;;;6.46;73.86
73024;BME280;72676;47.526;8.538;2024-01-07T05:35:22;95779.41;;;6.34;74.59
73024;BME280;72676;47.526;8.538;2024-01-07T05:37:49;95765.19;;;6.38;74.75
73024;BME280;72676;47.526;8.538;2024-01-07T05:40:15;95768.81;;;6.46;74.68
73024;BME280;72676;47.526;8.538;2024-01-07T05:42:42;95771.13;;;6.40;74.38
73024;BME280;72676;47.526;8.538;2024-01-07T05:45:09;95780.69;;;6.39;74.75
73024;BME280;72676;47.526;8.538;2024-01-07T05:47:35;95772.38;;;6.45;73.82
73024;BME280;72676;47.526;8.538;2024-01-07T05:50:02;95780.03;;;6.47;74.44
73024;BME280;72676;47.526;8.538;2024-01-07T05:52:28;95784.53;;;6.45;74.42
73024;BME280;72676;47.526;8.538;2024-01-07T05:54:55;95793.03;;;6.47;74.50
73024;BME280;72676;47.526;8.538;2024-01-07T05:57:22;95783.38;;;6.49;74.64
73024;BME280;72676;47.526;8.538;2024-01-07T05:59:48;95782.72;;;6.56;74.19
73024;BME280;72676;47.526;8.538;2024-01-07T06:02:20;95784.84;;;6.62;74.67
73024;BME280;72676;47.526;8.538;2024-01-07T06:04:49;95786.84;;;6.59;74.68
73024;BME280;72676;47.526;8.538;2024-01-07T06:07:15;95796.88;;;6.63;74.54
73024;BME280;72676;47.526;8.538;2024-01-07T06:09:42;95788.50;;;6.60;74.23
73024;BME280;72676;47.526;8.538;2024-01-07T06:12:08;95794.09;;;6.55;74.66
73024;BME280;72676;47.526;8.538;2024-01-07T06:14:35;95791.34;;;6.57;74.37
73024;BME280;72676;47.526;8.538;2024-01-07T06:17:01;95789.47;;;6.59;74.88
73024;BME280;72676;47.526;8.538;2024-01-07T06:19:29;95797.94;;;6.61;74.39
73024;BME280;72676;47.526;8.538;2024-01-07T06:21:55;95809.13;;;6.52;74.95
73024;BME280;72676;47.526;8.538;2024-01-07T06:24:22;95807.19;;;6.54;74.94
73024;BME280;72676;47.526;8.538;2024-01-07T06:26:49;95804.88;;;6.51;74.78
73024;BME280;72676;47.526;8.538;2024-01-07T06:29:15;95805.06;;;6.59;74.29
73024;BME280;72676;47.526;8.538;2024-01-07T06:31:45;95803.53;;;6.56;74.35
73024;BME280;72676;47.526;8.538;2024-01-07T06:34:12;95814.06;;;6.55;74.13
73024;BME280;72676;47.526;8.538;2024-01-07T06:36:41;95816.16;;;6.61;74.47
73024;BME280;72676;47.526;8.538;2024-01-07T06:39:08;95816.84;;;6.63;74.62
73024;BME280;72676;47.526;8.538;2024-01-07T06:41:35;95822.53;;;6.68;74.15
73024;BME280;72676;47.526;8.538;2024-01-07T06:44:02;95813.88;;;6.67;74.16
73024;BME280;72676;47.526;8.538;2024-01-07T06:46:29;95816.59;;;6.66;74.34
73024;BME280;72676;47.526;8.538;2024-01-07T06:48:55;95837.94;;;6.60;74.31
73024;BME280;72676;47.526;8.538;2024-01-07T06:51:22;95829.75;;;6.64;74.14
73024;BME280;72676;47.526;8.538;2024-01-07T06:53:48;95828.59;;;6.57;73.94
73024;BME280;72676;47.526;8.538;2024-01-07T06:56:16;95838.50;;;6.63;74.62
73024;BME280;72676;47.526;8.538;2024-01-07T06:58:43;95820.63;;;6.70;74.19
73024;BME280;72676;47.526;8.538;2024-01-07T07:01:10;95838.00;;;6.69;73.65
73024;BME280;72676;47.526;8.538;2024-01-07T07:03:39;95834.31;;;6.72;73.97
73024;BME280;72676;47.526;8.538;2024-01-07T07:06:06;95835.91;;;6.63;74.06
73024;BME280;72676;47.526;8.538;2024-01-07T07:08:33;95832.47;;;6.63;73.99
73024;BME280;72676;47.526;8.538;2024-01-07T07:11:00;95832.22;;;6.66;73.40
73024;BME280;72676;47.526;8.538;2024-01-07T07:13:27;95840.16;;;6.64;73.49
73024;BME280;72676;47.526;8.538;2024-01-07T07:15:53;95837.66;;;6.63;73.78
73024;BME280;72676;47.526;8.538;2024-01-07T07:18:20;95844.03;;;6.70;73.59
73024;BME280;72676;47.526;8.538;2024-01-07T07:20:46;95838.75;;;6.60;73.83
73024;BME280;72676;47.526;8.538;2024-01-07T07:23:13;95843.00;;;6.61;73.71
73024;BME280;72676;47.526;8.538;2024-01-07T07:25:40;95851.91;;;6.59;73.96
73024;BME280;72676;47.526;8.538;2024-01-07T07:28:06;95853.28;;;6.63;73.92
73024;BME280;72676;47.526;8.538;2024-01-07T07:30:33;95845.47;;;6.63;74.21
73024;BME280;72676;47.526;8.538;2024-01-07T07:32:59;95848.72;;;6.55;74.55
73024;BME280;72676;47.526;8.538;2024-01-07T07:35:26;95852.47;;;6.62;73.70
73024;BME280;72676;47.526;8.538;2024-01-07T07:37:52;95855.06;;;6.62;74.43
73024;BME280;72676;47.526;8.538;2024-01-07T07:40:19;95857.91;;;6.59;74.40
73024;BME280;72676;47.526;8.538;2024-01-07T07:42:46;95859.22;;;6.54;74.49
73024;BME280;72676;47.526;8.538;2024-01-07T07:45:12;95861.88;;;6.43;74.63
73024;BME280;72676;47.526;8.538;2024-01-07T07:47:39;95864.75;;;6.29;75.03
73024;BME280;72676;47.526;8.538;2024-01-07T07:50:11;95862.50;;;6.24;75.42
73024;BME280;72676;47.526;8.538;2024-01-07T07:52:38;95867.22;;;6.30;75.75
73024;BME280;72676;47.526;8.538;2024-01-07T07:55:04;95869.72;;;6.32;75.25
73024;BME280;72676;47.526;8.538;2024-01-07T07:57:33;95871.59;;;6.41;75.42
73024;BME280;72676;47.526;8.538;2024-01-07T07:59:59;95877.91;;;6.48;74.99
73024;BME280;72676;47.526;8.538;2024-01-07T08:02:30;95868.28;;;6.39;75.47
73024;BME280;72676;47.526;8.538;2024-01-07T08:04:56;95878.19;;;6.45;75.22
73024;BME280;72676;47.526;8.538;2024-01-07T08:07:23;95881.38;;;6.48;75.40
73024;BME280;72676;47.526;8.538;2024-01-07T08:09:49;95876.75;;;6.52;75.31
73024;BME280;72676;47.526;8.538;2024-01-07T08:12:15;95884.06;;;6.47;74.89
73024;BME280;72676;47.526;8.538;2024-01-07T08:14:42;95883.91;;;6.39;75.36
73024;BME280;72676;47.526;8.538;2024-01-07T08:17:08;95883.63;;;6.42;75.19
73024;BME280;72676;47.526;8.538;2024-01-07T08:19:35;95885.53;;;6.29;76.05
73024;BME280;72676;47.526;8.538;2024-01-07T08:22:02;95887.97;;;5.99;76.78
73024;BME280;72676;47.526;8.538;2024-01-07T08:24:29;95884.44;;;5.78;78.07
73024;BME280;72676;47.526;8.538;2024-01-07T08:26:55;95887.28;;;5.86;78.44
73024;BME280;72676;47.526;8.538;2024-01-07T08:29:22;95893.56;;;5.83;78.97
73024;BME280;72676;47.526;8.538;2024-01-07T08:31:48;95893.06;;;6.00;78.34
73024;BME280;72676;47.526;8.538;2024-01-07T08:34:15;95898.34;;;6.10;77.55
73024;BME280;72676;47.526;8.538;2024-01-07T08:36:42;95898.34;;;6.21;77.28
73024;BME280;72676;47.526;8.538;2024-01-07T08:39:09;95903.88;;;6.27;77.09
73024;BME280;72676;47.526;8.538;2024-01-07T08:41:35;95896.44;;;6.34;76.31
73024;BME280;72676;47.526;8.538;2024-01-07T08:44:02;95904.13;;;6.35;76.09
73024;BME280;72676;47.526;8.538;2024-01-07T08:46:28;95895.00;;;6.41;76.23
73024;BME280;72676;47.526;8.538;2024-01-07T08:48:55;95904.31;;;6.43;74.99
73024;BME280;72676;47.526;8.538;2024-01-07T08:51:21;95911.19;;;6.33;75.27
73024;BME280;72676;47.526;8.538;2024-01-07T08:53:48;95909.91;;;6.28;75.30
73024;BME280;72676;47.526;8.538;2024-01-07T08:56:15;95912.16;;;6.21;75.77
73024;BME280;72676;47.526;8.538;2024-01-07T08:58:41;95909.94;;;6.17;75.68
73024;BME280;72676;47.526;8.538;2024-01-07T09:01:08;95919.50;;;6.27;75.49
73024;BME280;72676;47.526;8.538;2024-01-07T09:03:35;95913.22;;;6.30;75.75
73024;BME280;72676;47.526;8.538;2024-01-07T09:06:01;95918.66;;;6.27;75.46
73024;BME280;72676;47.526;8.538;2024-01-07T09:08:28;95916.16;;;6.36;75.37
73024;BME280;72676;47.526;8.538;2024-01-07T09:10:55;95924.03;;;6.46;75.15
73024;BME280;72676;47.526;8.538;2024-01-07T09:13:21;95927.72;;;6.43;75.24
73024;BME280;72676;47.526;8.538;2024-01-07T09:15:48;95918.63;;;6.49;75.36
73024;BME280;72676;47.526;8.538;2024-01-07T09:18:14;95932.06;;;6.54;75.20
73024;BME280;72676;47.526;8.538;2024-01-07T09:20:41;95921.66;;;6.54;75.32
73024;BME280;72676;47.526;8.538;2024-01-07T09:23:07;95929.34;;;6.55;75.21
73024;BME280;72676;47.526;8.538;2024-01-07T09:25:34;95930.84;;;6.69;75.17
73024;BME280;72676;47.526;8.538;2024-01-07T09:28:00;95927.19;;;6.60;75.46
73024;BME280;72676;47.526;8.538;2024-01-07T09:30:27;95931.81;;;6.57;75.11
73024;BME280;72676;47.526;8.538;2024-01-07T09:32:54;95931.81;;;6.57;74.84
73024;BME280;72676;47.526;8.538;2024-01-07T09:35:20;95929.22;;;6.57;75.37
73024;BME280;72676;47.526;8.538;2024-01-07T09:37:47;95937.84;;;6.57;75.27
73024;BME280;72676;47.526;8.538;2024-01-07T09:40:17;95942.59;;;6.63;75.46
73024;BME280;72676;47.526;8.538;2024-01-07T09:42:45;95944.97;;;6.55;75.21
73024;BME280;72676;47.526;8.538;2024-01-07T09:45:13;95932.53;;;6.59;75.44
73024;BME280;72676;47.526;8.538;2024-01-07T09:47:41;95949.31;;;6.55;76.17
73024;BME280;72676;47.526;8.538;2024-01-07T09:50:11;95943.22;;;6.34;76.83
73024;BME280;72676;47.526;8.538;2024-01-07T09:52:44;95942.06;;;6.16;77.40
73024;BME280;72676;47.526;8.538;2024-01-07T09:55:19;95939.94;;;6.32;76.93
73024;BME280;72676;47.526;8.538;2024-01-07T09:57:48;95941.09;;;6.28;76.61
73024;BME280;72676;47.526;8.538;2024-01-07T10:00:16;95938.28;;;6.09;77.85
73024;BME280;72676;47.526;8.538;2024-01-07T10:02:42;95946.09;;;6.31;78.69
73024;BME280;72676;47.526;8.538;2024-01-07T10:05:10;95935.78;;;6.40;79.18
73024;BME280;72676;47.526;8.538;2024-01-07T10:07:37;95938.94;;;6.44;78.40
73024;BME280;72676;47.526;8.538;2024-01-07T10:10:16;95935.50;;;6.54;77.56
73024;BME280;72676;47.526;8.538;2024-01-07T10:12:44;95935.00;;;6.60;77.08
73024;BME280;72676;47.526;8.538;2024-01-07T10:15:13;95933.13;;;6.51;77.13
73024;BME280;72676;47.526;8.538;2024-01-07T10:17:41;95937.16;;;6.55;76.88
73024;BME280;72676;47.526;8.538;2024-01-07T10:20:09;95927.09;;;6.62;76.51
73024;BME280;72676;47.526;8.538;2024-01-07T10:22:37;95937.97;;;6.67;76.29
73024;BME280;72676;47.526;8.538;2024-01-07T10:25:04;95930.38;;;6.64;76.30
73024;BME280;72676;47.526;8.538;2024-01-07T10:27:36;95936.38;;;6.75;76.51
73024;BME280;72676;47.526;8.538;2024-01-07T10:30:03;95929.84;;;6.81;75.87
73024;BME280;72676;47.526;8.538;2024-01-07T10:32:30;95935.75;;;6.83;76.27
73024;BME280;72676;47.526;8.538;2024-01-07T10:35:02;95931.28;;;6.85;76.04
73024;BME280;72676;47.526;8.538;2024-01-07T10:37:33;95931.88;;;6.77;76.55
73024;BME280;72676;47.526;8.538;2024-01-07T10:40:00;95929.00;;;6.91;76.31
73024;BME280;72676;47.526;8.538;2024-01-07T10:42:33;95934.06;;;6.93;76.27
73024;BME280;72676;47.526;8.538;2024-01-07T10:45:00;95929.69;;;6.93;76.13
73024;BME280;72676;47.526;8.538;2024-01-07T10:47:31;95934.09;;;6.82;76.51
73024;BME280;72676;47.526;8.538;2024-01-07T10:50:02;95930.66;;;6.92;76.47
73024;BME280;72676;47.526;8.538;2024-01-07T10:52:31;95925.81;;;6.88;76.81
73024;BME280;72676;47.526;8.538;2024-01-07T10:55:04;95925.06;;;6.97;76.06
73024;BME280;72676;47.526;8.538;2024-01-07T10:57:42;95923.69;;;6.82;76.83
73024;BME280;72676;47.526;8.538;2024-01-07T11:00:09;95921.69;;;6.85;76.70
73024;BME280;72676;47.526;8.538;2024-01-07T11:03:09;95925.06;;;6.97;76.49
73024;BME280;72676;47.526;8.538;2024-01-07T11:05:44;95917.47;;;7.05;76.37
73024;BME280;72676;47.526;8.538;2024-01-07T11:08:45;95916.41;;;6.96;76.88
73024;BME280;72676;47.526;8.538;2024-01-07T11:11:16;95923.34;;;7.07;76.31
73024;BME280;72676;47.526;8.538;2024-01-07T11:13:44;95920.44;;;6.69;76.84
73024;BME280;72676;47.526;8.538;2024-01-07T11:16:10;95915.00;;;6.72;76.50
73024;BME280;72676;47.526;8.538;2024-01-07T11:18:49;95919.97;;;6.64;76.74
73024;BME280;72676;47.526;8.538;2024-01-07T11:21:23;95912.31;;;6.62;76.68
73024;BME280;72676;47.526;8.538;2024-01-07T11:23:52;95917.63;;;6.61;76.80
73024;BME280;72676;47.526;8.538;2024-01-07T11:26:20;95916.25;;;6.77;76.45
73024;BME280;72676;47.526;8.538;2024-01-07T11:34:04;95913.34;;;6.71;76.40
73024;BME280;72676;47.526;8.538;2024-01-07T11:36:35;95916.94;;;6.59;76.06
73024;BME280;72676;47.526;8.538;2024-01-07T11:39:03;95901.28;;;6.70;76.09
73024;BME280;72676;47.526;8.538;2024-01-07T11:41:33;95909.41;;;6.76;76.22
73024;BME280;72676;47.526;8.538;2024-01-07T11:44:00;95903.41;;;6.65;76.57
73024;BME280;72676;47.526;8.538;2024-01-07T11:46:32;95907.72;;;6.55;76.88
73024;BME280;72676;47.526;8.538;2024-01-07T11:48:59;95909.78;;;6.72;76.19
73024;BME280;72676;47.526;8.538;2024-01-07T11:51:30;95906.16;;;6.84;76.26
73024;BME280;72676;47.526;8.538;2024-01-07T11:53:59;95908.88;;;6.62;76.37
73024;BME280;72676;47.526;8.538;2024-01-07T11:56:26;95908.19;;;6.60;76.88
73024;BME280;72676;47.526;8.538;2024-01-07T11:58:53;95901.94;;;6.83;76.00
73024;BME280;72676;47.526;8.538;2024-01-07T12:01:19;95913.50;;;6.90;76.13
73024;BME280;72676;47.526;8.538;2024-01-07T12:03:46;95904.63;;;6.92;75.39
73024;BME280;72676;47.526;8.538;2024-01-07T12:06:13;95902.28;;;6.89;75.78
73024;BME280;72676;47.526;8.538;2024-01-07T12:08:41;95911.84;;;6.89;75.92
73024;BME280;72676;47.526;8.538;2024-01-07T12:11:08;95902.09;;;6.70;76.25
73024;BME280;72676;47.526;8.538;2024-01-07T12:13:35;95907.22;;;6.61;76.59
73024;BME280;72676;47.526;8.538;2024-01-07T12:16:04;95916.13;;;6.47;77.07
73024;BME280;72676;47.526;8.538;2024-01-07T12:18:31;95910.19;;;6.56;76.62
73024;BME280;72676;47.526;8.538;2024-01-07T12:20:59;95911.22;;;6.65;76.01
73024;BME280;72676;47.526;8.538;2024-01-07T12:23:26;95911.25;;;6.54;76.67
73024;BME280;72676;47.526;8.538;2024-01-07T12:25:53;95916.03;;;6.80;76.20
73024;BME280;72676;47.526;8.538;2024-01-07T12:28:20;95910.88;;;6.90;75.59
73024;BME280;72676;47.526;8.538;2024-01-07T12:30:50;95913.88;;;6.85;76.14
73024;BME280;72676;47.526;8.538;2024-01-07T12:33:20;95905.78;;;6.99;75.59
73024;BME280;72676;47.526;8.538;2024-01-07T12:35:47;95909.44;;;6.97;76.07
73024;BME280;72676;47.526;8.538;2024-01-07T12:38:14;95917.25;;;6.97;75.71
73024;BME280;72676;47.526;8.538;2024-01-07T12:40:41;95914.41;;;7.00;75.36
73024;BME280;72676;47.526;8.538;2024-01-07T12:43:08;95916.59;;;6.84;75.83
73024;BME280;72676;47.526;8.538;2024-01-07T12:45:35;95920.94;;;6.63;75.73
73024;BME280;72676;47.526;8.538;2024-01-07T12:48:01;95919.75;;;6.56;76.26
73024;BME280;72676;47.526;8.538;2024-01-07T12:50:29;95917.53;;;6.62;75.99
73024;BME280;72676;47.526;8.538;2024-01-07T12:52:59;95922.19;;;6.37;76.19
73024;BME280;72676;47.526;8.538;2024-01-07T12:55:26;95920.50;;;6.47;76.14
73024;BME280;72676;47.526;8.538;2024-01-07T12:57:52;95919.09;;;6.43;75.86
73024;BME280;72676;47.526;8.538;2024-01-07T13:00:20;95921.19;;;6.60;75.46
73024;BME280;72676;47.526;8.538;2024-01-07T13:02:47;95924.75;;;6.59;76.02
73024;BME280;72676;47.526;8.538;2024-01-07T13:05:14;95928.94;;;6.71;76.53
73024;BME280;72676;47.526;8.538;2024-01-07T13:07:41;95924.44;;;6.73;76.63
73024;BME280;72676;47.526;8.538;2024-01-07T13:10:08;95925.88;;;6.77;76.22
73024;BME280;72676;47.526;8.538;2024-01-07T13:12:35;95920.19;;;6.72;77.87
73024;BME280;72676;47.526;8.538;2024-01-07T13:15:13;95924.91;;;6.78;77.52